createdAt,value
2018-05-26T00:00:11.340Z,9.07
2018-05-26T00:02:38.741Z,9.07
2018-05-26T00:05:06.130Z,8.00
2018-05-26T00:07:33.515Z,7.40
2018-05-26T00:10:00.902Z,8.40
2018-05-26T00:12:28.287Z,7.85
2018-05-26T00:14:55.669Z,8.00
2018-05-26T00:17:23.065Z,7.47
2018-05-26T00:19:50.455Z,7.53
2018-05-26T00:22:17.837Z,7.87
2018-05-26T00:24:45.240Z,8.23
2018-05-26T00:27:12.615Z,8.02
2018-05-26T00:29:40.010Z,7.97
2018-05-26T00:32:07.409Z,8.57
2018-05-26T00:34:35.503Z,7.93
2018-05-26T00:37:03.444Z,8.15
2018-05-26T00:39:30.845Z,8.67
2018-05-26T00:41:58.355Z,8.53
2018-05-26T00:44:25.749Z,8.33
2018-05-26T00:46:53.148Z,8.20
2018-05-26T00:49:21.154Z,9.20
2018-05-26T00:51:48.539Z,9.43
2018-05-26T00:54:15.926Z,8.60
2018-05-26T00:56:43.312Z,8.10
2018-05-26T00:59:10.702Z,8.50
2018-05-26T01:01:38.095Z,7.97
2018-05-26T01:04:05.476Z,8.57
2018-05-26T01:06:33.533Z,9.20
2018-05-26T01:09:00.931Z,9.23
2018-05-26T01:11:28.311Z,8.60
2018-05-26T01:13:55.706Z,8.43
2018-05-26T01:16:23.116Z,8.57
2018-05-26T01:18:51.351Z,8.63
2018-05-26T01:21:18.730Z,9.80
2018-05-26T01:23:46.128Z,9.95
2018-05-26T01:26:13.513Z,9.43
2018-05-26T01:28:40.894Z,8.97
2018-05-26T01:31:08.299Z,10.27
2018-05-26T01:33:35.708Z,10.37
2018-05-26T01:36:03.692Z,9.32
2018-05-26T01:38:31.094Z,8.87
2018-05-26T01:40:58.475Z,9.93
2018-05-26T01:43:25.873Z,8.97
2018-05-26T01:45:53.256Z,9.13
2018-05-26T01:48:20.633Z,9.85
2018-05-26T01:50:48.030Z,10.00
2018-05-26T01:53:15.409Z,9.00
2018-05-26T01:55:42.807Z,9.50
2018-05-26T01:58:10.191Z,9.30
2018-05-26T02:00:37.587Z,9.83
2018-05-26T02:03:04.985Z,11.40
2018-05-26T02:05:32.378Z,10.90
2018-05-26T02:07:59.772Z,10.90
2018-05-26T02:10:27.167Z,10.20
2018-05-26T02:12:54.634Z,10.33
2018-05-26T02:15:22.060Z,9.77
2018-05-26T02:17:49.473Z,11.50
2018-05-26T02:20:16.860Z,9.37
2018-05-26T02:22:44.251Z,11.00
2018-05-26T02:25:11.649Z,10.30
2018-05-26T02:27:39.060Z,11.20
2018-05-26T02:30:06.437Z,10.40
2018-05-26T02:32:33.960Z,10.80
2018-05-26T02:35:01.409Z,10.90
2018-05-26T02:37:28.992Z,10.73
2018-05-26T02:39:56.399Z,11.23
2018-05-26T02:42:23.787Z,11.20
2018-05-26T02:44:51.187Z,10.77
2018-05-26T02:47:18.576Z,11.20
2018-05-26T02:49:45.967Z,10.63
2018-05-26T02:52:13.368Z,11.10
2018-05-26T02:54:40.763Z,10.35
2018-05-26T02:57:08.160Z,11.07
2018-05-26T02:59:35.561Z,10.90
2018-05-26T03:02:02.935Z,9.80
2018-05-26T03:04:35.881Z,11.90
2018-05-26T03:07:09.912Z,10.73
2018-05-26T03:09:42.992Z,11.63
2018-05-26T03:12:16.051Z,11.23
2018-05-26T03:14:46.780Z,12.10
2018-05-26T03:20:16.514Z,10.00
2018-05-26T03:22:43.906Z,11.70
2018-05-26T03:25:11.300Z,11.00
2018-05-26T03:27:38.688Z,10.65
2018-05-26T03:30:06.087Z,11.23
2018-05-26T03:32:34.271Z,10.60
2018-05-26T03:35:01.680Z,11.23
2018-05-26T03:37:29.075Z,11.43
2018-05-26T03:39:56.455Z,10.53
2018-05-26T03:42:23.968Z,11.17
2018-05-26T03:44:51.363Z,11.20
2018-05-26T03:47:18.753Z,9.93
2018-05-26T03:49:46.150Z,11.40
2018-05-26T03:52:13.547Z,11.43
2018-05-26T03:54:53.675Z,12.75
2018-05-26T03:57:32.795Z,9.97
2018-05-26T04:00:18.061Z,12.10
2018-05-26T04:02:45.453Z,11.00
2018-05-26T04:05:12.831Z,10.77
2018-05-26T04:07:40.222Z,11.02
2018-05-26T04:10:07.606Z,10.53
2018-05-26T04:12:35.004Z,10.77
2018-05-26T04:15:02.398Z,11.07
2018-05-26T04:17:29.779Z,10.60
2018-05-26T04:19:57.162Z,11.67
2018-05-26T04:22:24.566Z,11.47
2018-05-26T04:24:51.950Z,10.60
2018-05-26T04:27:19.357Z,10.77
2018-05-26T04:29:46.738Z,10.40
2018-05-26T04:32:14.358Z,10.73
2018-05-26T04:34:41.744Z,10.05
2018-05-26T04:37:09.140Z,9.55
2018-05-26T04:39:36.526Z,10.20
2018-05-26T04:42:04.704Z,10.47
2018-05-26T04:44:32.148Z,9.90
2018-05-26T04:46:59.531Z,9.97
2018-05-26T04:49:26.921Z,10.67
2018-05-26T04:51:54.451Z,10.27
2018-05-26T04:54:21.843Z,10.40
2018-05-26T04:56:49.249Z,11.73
2018-05-26T04:59:16.632Z,10.98
2018-05-26T05:01:44.026Z,11.23
2018-05-26T05:04:11.411Z,10.13
2018-05-26T05:06:38.816Z,11.23
2018-05-26T05:09:06.253Z,10.73
2018-05-26T05:11:33.636Z,10.67
2018-05-26T05:14:01.351Z,10.90
2018-05-26T05:16:28.733Z,11.00
2018-05-26T05:18:56.228Z,11.53
2018-05-26T05:21:23.615Z,10.63
2018-05-26T05:23:51.050Z,11.00
2018-05-26T05:26:18.404Z,10.87
2018-05-26T05:28:45.789Z,10.90
2018-05-26T05:31:13.272Z,11.30
2018-05-26T05:33:40.668Z,11.50
2018-05-26T05:36:08.055Z,12.20
2018-05-26T05:38:35.450Z,12.30
2018-05-26T05:41:02.839Z,11.30
2018-05-26T05:43:30.232Z,11.20
2018-05-26T05:45:57.614Z,11.60
2018-05-26T05:48:25.038Z,11.80
2018-05-26T05:50:52.432Z,11.35
2018-05-26T05:53:19.832Z,10.90
2018-05-26T05:55:47.218Z,11.73
2018-05-26T05:58:14.619Z,11.53
2018-05-26T06:00:42.011Z,12.98
2018-05-26T06:03:09.398Z,12.43
2018-05-26T06:05:36.789Z,11.53
2018-05-26T06:08:05.142Z,11.07
2018-05-26T06:10:32.548Z,13.00
2018-05-26T06:12:59.972Z,10.93
2018-05-26T06:15:27.366Z,11.10
2018-05-26T06:17:54.770Z,13.07
2018-05-26T06:20:22.183Z,11.60
2018-05-26T06:22:49.610Z,11.70
2018-05-26T06:25:16.981Z,11.43
2018-05-26T06:27:44.370Z,11.17
2018-05-26T06:30:11.764Z,10.13
2018-05-26T06:32:39.157Z,11.30
2018-05-26T06:35:06.549Z,12.00
2018-05-26T06:37:33.948Z,11.73
2018-05-26T06:40:01.336Z,12.13
2018-05-26T06:42:28.732Z,12.27
2018-05-26T06:44:56.127Z,12.07
2018-05-26T06:47:23.510Z,11.50
2018-05-26T06:49:50.898Z,11.90
2018-05-26T06:52:18.396Z,11.97
2018-05-26T06:54:45.799Z,13.30
2018-05-26T06:57:13.182Z,12.10
2018-05-26T06:59:40.580Z,12.57
2018-05-26T07:02:07.962Z,12.27
2018-05-26T07:04:35.452Z,11.20
2018-05-26T07:07:02.835Z,12.67
2018-05-26T07:09:30.243Z,11.70
2018-05-26T07:11:57.627Z,13.23
2018-05-26T07:14:25.057Z,11.70
2018-05-26T07:16:52.422Z,12.97
2018-05-26T07:19:19.849Z,11.20
2018-05-26T07:21:47.227Z,13.10
2018-05-26T07:24:14.627Z,11.60
2018-05-26T07:26:42.023Z,10.77
2018-05-26T07:29:09.429Z,11.52
2018-05-26T07:31:36.819Z,11.17
2018-05-26T07:34:04.226Z,11.80
2018-05-26T07:36:31.612Z,11.50
2018-05-26T07:38:59.021Z,10.87
2018-05-26T07:41:26.397Z,9.37
2018-05-26T07:43:53.791Z,12.30
2018-05-26T07:46:21.187Z,11.83
2018-05-26T07:48:48.579Z,12.00
2018-05-26T07:51:15.979Z,11.02
2018-05-26T07:53:43.416Z,11.73
2018-05-26T07:56:10.806Z,10.52
2018-05-26T07:58:38.269Z,12.70
2018-05-26T08:01:08.096Z,11.74
2018-05-26T08:03:35.580Z,11.80
2018-05-26T08:06:02.979Z,10.00
2018-05-26T08:08:30.361Z,11.03
2018-05-26T08:10:57.771Z,11.60
2018-05-26T08:13:25.195Z,11.00
2018-05-26T08:15:52.635Z,10.95
2018-05-26T08:18:20.008Z,10.13
2018-05-26T08:20:47.402Z,10.17
2018-05-26T08:23:14.795Z,10.23
2018-05-26T08:25:53.292Z,9.00
2018-05-26T08:28:20.679Z,9.48
2018-05-26T08:30:48.076Z,9.88
2018-05-26T08:33:15.462Z,14.60
2018-05-26T08:35:42.855Z,9.30
2018-05-26T08:38:10.230Z,9.20
2018-05-26T08:40:37.630Z,11.63
2018-05-26T08:43:05.739Z,9.10
2018-05-26T08:45:33.197Z,9.40
2018-05-26T08:48:00.554Z,10.00
2018-05-26T08:50:28.020Z,9.13
2018-05-26T08:52:55.411Z,10.00
2018-05-26T08:55:22.804Z,9.00
2018-05-26T08:57:50.184Z,9.63
2018-05-26T09:00:17.575Z,9.30
2018-05-26T09:02:44.948Z,9.20
2018-05-26T09:05:12.340Z,10.00
2018-05-26T09:07:39.717Z,10.13
2018-05-26T09:10:07.103Z,9.60
2018-05-26T09:12:34.475Z,9.43
2018-05-26T09:15:01.950Z,8.65
2018-05-26T09:17:29.267Z,9.10
2018-05-26T09:19:56.649Z,7.67
2018-05-26T09:22:24.037Z,8.63
2018-05-26T09:24:51.418Z,8.30
2018-05-26T09:27:18.803Z,9.10
2018-05-26T09:29:46.203Z,7.80
2018-05-26T09:32:13.597Z,9.27
2018-05-26T09:34:40.976Z,7.72
2018-05-26T09:37:08.367Z,8.23
2018-05-26T09:39:35.986Z,9.13
2018-05-26T09:42:03.471Z,7.87
2018-05-26T09:44:30.999Z,8.57
2018-05-26T09:46:58.415Z,7.43
2018-05-26T09:49:25.787Z,7.67
2018-05-26T09:51:53.168Z,7.77
2018-05-26T09:54:20.544Z,7.20
2018-05-26T09:56:47.931Z,7.70
2018-05-26T09:59:15.345Z,7.67
2018-05-26T10:01:42.726Z,7.32
2018-05-26T10:04:10.167Z,7.00
2018-05-26T10:06:37.558Z,6.60
2018-05-26T10:09:04.944Z,6.80
2018-05-26T10:11:32.333Z,7.47
2018-05-26T10:13:59.716Z,7.90
2018-05-26T10:16:27.096Z,6.47
2018-05-26T10:18:54.480Z,6.90
2018-05-26T10:21:21.867Z,7.18
2018-05-26T10:23:49.250Z,9.83
2018-05-26T10:26:16.748Z,7.13
2018-05-26T10:28:44.120Z,8.43
2018-05-26T10:31:11.503Z,7.95
2018-05-26T10:33:38.895Z,7.17
2018-05-26T10:36:06.299Z,6.70
2018-05-26T10:38:33.790Z,7.80
2018-05-26T10:41:01.170Z,7.20
2018-05-26T10:43:28.564Z,6.70
2018-05-26T10:46:07.667Z,7.73
2018-05-26T10:48:35.061Z,6.47
2018-05-26T10:51:02.436Z,6.63
2018-05-26T10:53:30.046Z,6.13
2018-05-26T10:55:57.478Z,6.97
2018-05-26T10:58:24.815Z,6.50
2018-05-26T11:00:52.194Z,6.07
2018-05-26T11:03:19.591Z,5.90
2018-05-26T11:05:46.979Z,6.35
2018-05-26T11:08:14.421Z,6.00
2018-05-26T11:10:41.787Z,6.67
2018-05-26T11:13:09.175Z,6.00
2018-05-26T11:15:36.555Z,6.20
2018-05-26T11:18:03.979Z,5.70
2018-05-26T11:20:31.362Z,6.90
2018-05-26T11:22:58.898Z,6.00
2018-05-26T11:25:26.293Z,7.00
2018-05-26T11:27:53.662Z,6.33
2018-05-26T11:30:21.111Z,5.85
2018-05-26T11:32:48.536Z,5.93
2018-05-26T11:35:15.941Z,5.87
2018-05-26T11:37:43.320Z,5.60
2018-05-26T11:40:10.713Z,5.40
2018-05-26T11:42:38.282Z,5.97
2018-05-26T11:45:05.664Z,6.83
2018-05-26T11:47:33.042Z,8.13
2018-05-26T11:50:00.447Z,9.80
2018-05-26T11:52:28.209Z,9.07
2018-05-26T11:54:55.611Z,7.07
2018-05-26T11:57:23.002Z,7.15
2018-05-26T11:59:50.385Z,6.70
2018-05-26T12:02:17.767Z,6.80
2018-05-26T12:04:45.158Z,5.05
2018-05-26T12:07:12.616Z,5.23
2018-05-26T12:09:39.987Z,5.20
2018-05-26T12:12:07.486Z,4.77
2018-05-26T12:14:34.868Z,4.47
2018-05-26T12:17:02.262Z,4.00
2018-05-26T12:19:29.638Z,4.57
2018-05-26T12:21:57.029Z,3.93
2018-05-26T12:24:24.400Z,4.53
2018-05-26T12:26:51.819Z,4.37
2018-05-26T12:29:19.196Z,4.70
2018-05-26T12:31:46.671Z,4.43
2018-05-26T12:34:14.076Z,4.40
2018-05-26T12:36:41.474Z,4.57
2018-05-26T12:39:08.846Z,4.30
2018-05-26T12:41:36.927Z,4.15
2018-05-26T12:44:04.562Z,4.60
2018-05-26T12:46:31.962Z,4.87
2018-05-26T12:48:59.337Z,4.40
2018-05-26T12:51:26.723Z,5.10
2018-05-26T12:53:54.102Z,4.73
2018-05-26T12:56:21.494Z,4.47
2018-05-26T12:58:48.878Z,3.77
2018-05-26T13:01:16.271Z,4.63
2018-05-26T13:03:43.651Z,3.70
2018-05-26T13:06:11.046Z,4.10
2018-05-26T13:08:38.420Z,3.77
2018-05-26T13:11:05.816Z,4.40
2018-05-26T13:13:33.201Z,3.60
2018-05-26T13:16:00.580Z,3.67
2018-05-26T13:18:27.973Z,3.40
2018-05-26T13:20:55.357Z,4.47
2018-05-26T13:23:22.754Z,3.70
2018-05-26T13:25:50.127Z,4.20
2018-05-26T13:28:17.527Z,3.43
2018-05-26T13:30:44.910Z,4.33
2018-05-26T13:33:12.294Z,4.50
2018-05-26T13:35:39.680Z,3.97
2018-05-26T13:38:07.221Z,3.57
2018-05-26T13:40:34.614Z,3.80
2018-05-26T13:43:02.012Z,3.70
2018-05-26T13:45:29.391Z,3.70
2018-05-26T13:47:56.794Z,3.67
2018-05-26T13:50:24.184Z,4.30
2018-05-26T13:52:51.672Z,4.75
2018-05-26T13:55:19.007Z,4.95
2018-05-26T13:57:46.338Z,4.87
2018-05-26T14:00:13.771Z,4.60
2018-05-26T14:02:41.134Z,3.80
2018-05-26T14:05:08.615Z,4.28
2018-05-26T14:07:36.030Z,3.67
2018-05-26T14:10:03.425Z,4.70
2018-05-26T14:12:30.809Z,4.30
2018-05-26T14:14:58.197Z,3.92
2018-05-26T14:17:25.588Z,3.33
2018-05-26T14:19:52.977Z,3.50
2018-05-26T14:22:20.353Z,3.50
2018-05-26T14:24:47.739Z,3.53
2018-05-26T14:27:15.134Z,3.45
2018-05-26T14:29:42.862Z,3.90
2018-05-26T14:32:10.258Z,3.50
2018-05-26T14:34:37.965Z,4.03
2018-05-26T14:37:05.339Z,3.77
2018-05-26T14:39:32.752Z,3.40
2018-05-26T14:42:00.125Z,3.33
2018-05-26T14:44:27.519Z,3.43
2018-05-26T14:46:54.894Z,3.78
2018-05-26T14:49:22.299Z,3.45
2018-05-26T14:51:49.681Z,3.50
2018-05-26T14:54:17.068Z,3.63
2018-05-26T14:56:44.447Z,3.55
2018-05-26T14:59:11.851Z,3.50
2018-05-26T15:01:39.301Z,3.63
2018-05-26T15:04:07.649Z,3.20
2018-05-26T15:06:35.091Z,3.42
2018-05-26T15:09:02.474Z,3.37
2018-05-26T15:11:29.867Z,3.28
2018-05-26T15:13:57.249Z,3.25
2018-05-26T15:16:24.642Z,3.33
2018-05-26T15:18:52.030Z,3.30
2018-05-26T15:21:19.420Z,3.47
2018-05-26T15:23:46.806Z,3.10
2018-05-26T15:26:15.533Z,3.60
2018-05-26T15:28:42.919Z,3.22
2018-05-26T15:31:10.319Z,8.35
2018-05-26T15:33:38.145Z,3.75
2018-05-26T15:36:05.640Z,3.22
2018-05-26T15:38:33.030Z,3.60
2018-05-26T15:41:00.436Z,3.37
2018-05-26T15:43:27.815Z,3.37
2018-05-26T15:45:55.198Z,3.53
2018-05-26T15:48:22.587Z,3.53
2018-05-26T15:50:49.964Z,3.60
2018-05-26T15:53:17.350Z,3.95
2018-05-26T15:55:44.736Z,3.60
2018-05-26T15:58:12.127Z,3.47
2018-05-26T16:00:39.504Z,3.53
2018-05-26T16:03:07.932Z,3.74
2018-05-26T16:05:35.309Z,3.70
2018-05-26T16:08:02.739Z,4.25
2018-05-26T16:10:30.120Z,4.20
2018-05-26T16:12:57.516Z,3.67
2018-05-26T16:15:24.883Z,4.17
2018-05-26T16:17:52.276Z,3.67
2018-05-26T16:20:19.701Z,3.90
2018-05-26T16:22:47.462Z,3.97
2018-05-26T16:25:14.849Z,3.97
2018-05-26T16:27:42.233Z,4.47
2018-05-26T16:30:09.824Z,4.10
2018-05-26T16:32:37.990Z,4.07
2018-05-26T16:35:05.383Z,4.00
2018-05-26T16:37:32.777Z,27.40
2018-05-26T16:40:00.167Z,27.10
2018-05-26T16:42:27.574Z,13.97
2018-05-26T16:44:54.967Z,17.80
2018-05-26T16:47:22.367Z,19.75
2018-05-26T16:49:49.850Z,17.03
2018-05-26T16:52:17.244Z,14.27
2018-05-26T16:54:44.639Z,10.40
2018-05-26T16:57:12.018Z,8.47
2018-05-26T16:59:39.419Z,7.97
2018-05-26T17:02:06.794Z,7.23
2018-05-26T17:04:34.179Z,9.03
2018-05-26T17:07:01.559Z,11.37
2018-05-26T17:09:29.118Z,6.27
2018-05-26T17:11:56.456Z,6.90
2018-05-26T17:14:23.868Z,7.90
2018-05-26T17:16:51.289Z,5.20
2018-05-26T17:19:18.701Z,5.93
2018-05-26T17:21:46.095Z,5.50
2018-05-26T17:24:13.478Z,5.27
2018-05-26T17:26:40.866Z,4.60
2018-05-26T17:29:08.283Z,6.27
2018-05-26T17:31:35.679Z,5.23
2018-05-26T17:34:03.052Z,8.33
2018-05-26T17:36:30.483Z,6.63
2018-05-26T17:38:57.819Z,6.23
2018-05-26T17:41:25.203Z,6.70
2018-05-26T17:43:52.584Z,7.47
2018-05-26T17:46:19.964Z,6.93
2018-05-26T17:48:47.347Z,7.30
2018-05-26T17:51:14.739Z,7.30
2018-05-26T17:53:42.332Z,6.57
2018-05-26T17:56:09.716Z,7.17
2018-05-26T17:58:37.085Z,6.20
2018-05-26T18:01:04.459Z,7.17
2018-05-26T18:03:31.837Z,6.77
2018-05-26T18:05:59.247Z,6.40
2018-05-26T18:08:26.789Z,7.27
2018-05-26T18:10:54.207Z,6.97
2018-05-26T18:13:21.592Z,7.47
2018-05-26T18:15:49.055Z,6.55
2018-05-26T18:18:16.498Z,6.85
2018-05-26T18:20:43.904Z,6.43
2018-05-26T18:23:11.315Z,6.40
2018-05-26T18:25:38.701Z,6.27
2018-05-26T18:28:06.092Z,6.00
2018-05-26T18:30:33.477Z,6.30
2018-05-26T18:33:00.856Z,6.50
2018-05-26T18:35:28.242Z,6.50
2018-05-26T18:37:55.630Z,6.03
2018-05-26T18:40:23.018Z,7.50
2018-05-26T18:42:50.410Z,6.72
2018-05-26T18:45:17.799Z,5.75
2018-05-26T18:47:45.180Z,6.10
2018-05-26T18:50:12.563Z,6.47
2018-05-26T18:52:39.948Z,5.73
2018-05-26T18:55:07.331Z,6.10
2018-05-26T18:57:34.711Z,7.37
2018-05-26T19:00:02.097Z,7.37
2018-05-26T19:02:29.486Z,7.13
2018-05-26T19:04:56.861Z,7.50
2018-05-26T19:07:24.260Z,6.20
2018-05-26T19:09:51.640Z,7.13
2018-05-26T19:12:19.025Z,7.87
2018-05-26T19:14:46.409Z,7.27
2018-05-26T19:17:13.794Z,6.07
2018-05-26T19:19:41.176Z,7.10
2018-05-26T19:22:08.790Z,7.23
2018-05-26T19:24:36.179Z,6.40
2018-05-26T19:27:03.575Z,7.20
2018-05-26T19:29:30.955Z,6.97
2018-05-26T19:31:58.454Z,7.53
2018-05-26T19:34:25.900Z,7.43
2018-05-26T19:36:53.297Z,7.13
2018-05-26T19:39:20.678Z,7.53
2018-05-26T19:41:48.095Z,7.97
2018-05-26T19:44:15.482Z,7.37
2018-05-26T19:46:42.859Z,7.70
2018-05-26T19:49:10.355Z,7.10
2018-05-26T19:51:37.739Z,7.20
2018-05-26T19:54:05.124Z,8.07
2018-05-26T19:56:32.511Z,6.43
2018-05-26T19:58:59.900Z,7.67
2018-05-26T20:01:27.294Z,8.23
2018-05-26T20:03:54.687Z,7.47
2018-05-26T20:06:22.222Z,7.80
2018-05-26T20:08:49.862Z,7.70
2018-05-26T20:11:17.222Z,7.97
2018-05-26T20:13:44.609Z,9.68
2018-05-26T20:16:11.994Z,10.77
2018-05-26T20:18:39.382Z,10.60
2018-05-26T20:21:06.783Z,9.80
2018-05-26T20:23:34.177Z,10.97
2018-05-26T20:26:01.614Z,10.73
2018-05-26T20:28:28.994Z,9.87
2018-05-26T20:30:56.459Z,10.80
2018-05-26T20:33:23.839Z,11.00
2018-05-26T20:35:51.277Z,9.50
2018-05-26T20:38:18.689Z,9.15
2018-05-26T20:40:46.067Z,9.10
2018-05-26T20:43:13.448Z,7.53
2018-05-26T20:45:40.839Z,9.10
2018-05-26T20:48:09.855Z,8.30
2018-05-26T20:50:37.250Z,9.00
2018-05-26T20:53:04.614Z,9.27
2018-05-26T20:55:32.002Z,9.23
2018-05-26T20:57:59.380Z,8.10
2018-05-26T21:00:26.759Z,6.90
2018-05-26T21:02:54.135Z,6.62
2018-05-26T21:05:21.532Z,6.87
2018-05-26T21:07:49.022Z,7.83
2018-05-26T21:10:16.442Z,6.62
2018-05-26T21:12:43.858Z,8.75
2018-05-26T21:15:11.361Z,7.90
2018-05-26T21:17:39.312Z,7.78
2018-05-26T21:20:06.716Z,41.07
2018-05-26T21:22:34.093Z,40.57
2018-05-26T21:25:01.487Z,14.53
2018-05-26T21:27:28.864Z,8.40
2018-05-26T21:29:56.247Z,8.03
2018-05-26T21:32:23.627Z,7.50
2018-05-26T21:34:51.004Z,8.40
2018-05-26T21:37:18.399Z,6.50
2018-05-26T21:39:45.776Z,7.40
2018-05-26T21:42:13.165Z,7.23
2018-05-26T21:44:40.543Z,7.40
2018-05-26T21:47:07.965Z,6.70
2018-05-26T21:49:35.332Z,6.07
2018-05-26T21:52:02.723Z,6.90
2018-05-26T21:54:30.110Z,7.10
2018-05-26T21:56:57.502Z,7.40
2018-05-26T21:59:24.944Z,7.37
2018-05-26T22:01:52.315Z,7.63
2018-05-26T22:04:19.691Z,6.80
2018-05-26T22:06:47.110Z,6.57
2018-05-26T22:09:14.493Z,8.20
2018-05-26T22:11:41.891Z,7.70
2018-05-26T22:14:09.563Z,7.00
2018-05-26T22:16:36.949Z,7.53
2018-05-26T22:19:04.624Z,7.53
2018-05-26T22:21:32.011Z,7.10
2018-05-26T22:23:59.604Z,7.27
2018-05-26T22:26:26.995Z,7.62
2018-05-26T22:28:54.372Z,8.27
2018-05-26T22:31:22.043Z,7.83
2018-05-26T22:33:49.570Z,7.80
2018-05-26T22:36:17.148Z,7.78
2018-05-26T22:38:44.563Z,7.97
2018-05-26T22:41:11.941Z,7.33
2018-05-26T22:43:39.755Z,6.83
2018-05-26T22:46:07.144Z,7.43
2018-05-26T22:48:34.587Z,7.00
2018-05-26T22:51:01.972Z,7.30
2018-05-26T22:53:29.544Z,7.37
2018-05-26T22:55:56.908Z,6.85
2018-05-26T22:58:24.301Z,8.20
2018-05-26T23:00:51.715Z,8.07
2018-05-26T23:03:19.124Z,7.70
2018-05-26T23:05:46.724Z,7.57
2018-05-26T23:08:14.123Z,6.90
2018-05-26T23:10:41.546Z,7.23
2018-05-26T23:13:08.963Z,6.60
2018-05-26T23:15:36.354Z,6.90
2018-05-26T23:18:04.059Z,6.53
2018-05-26T23:20:31.452Z,16.67
2018-05-26T23:22:58.852Z,12.83
2018-05-26T23:25:26.248Z,8.88
2018-05-26T23:27:53.655Z,7.13
2018-05-26T23:30:21.043Z,6.40
2018-05-26T23:32:48.431Z,7.68
2018-05-26T23:35:15.822Z,7.20
2018-05-26T23:37:43.262Z,9.27
2018-05-26T23:40:10.690Z,7.07
2018-05-26T23:42:38.075Z,6.87
2018-05-26T23:45:05.547Z,7.30
2018-05-26T23:47:32.988Z,6.57
2018-05-26T23:50:00.520Z,7.37
2018-05-26T23:52:27.909Z,6.67
2018-05-26T23:54:55.392Z,6.93
2018-05-26T23:57:22.778Z,6.37
2018-05-26T23:59:50.181Z,6.10
